Time;durP1;ratioP1;P1;durP2;ratioP2;P2;SDS_P1;SDS_P2;PMS_P1;PMS_P2;Temp;Humidity;BMP_temperature;BMP_pressure;BME280_temperature;BME280_humidity;BME280_pressure;Samples;Min_cycle;Max_cycle;Signal;HPM_P1;HPM_P2
2022/02/19 00:00:29;;;;;;;10.15;1.25;;;9.20;99.90;;;;;;4988704;28;20034;-74
2022/02/19 00:02:55;;;;;;;10.13;1.60;;;9.00;99.90;;;;;;4988078;28;20088;-74
2022/02/19 00:05:22;;;;;;;8.45;1.80;;;9.20;99.90;;;;;;4989085;28;20034;-74
2022/02/19 00:07:47;;;;;;;7.20;1.52;;;8.90;99.90;;;;;;4988886;28;20105;-74
2022/02/19 00:10:14;;;;;;;10.38;1.88;;;9.20;99.90;;;;;;4990744;28;20442;-74
2022/02/19 00:12:39;;;;;;;9.02;1.77;;;9.00;99.90;;;;;;4989371;28;20037;-74
2022/02/19 00:15:05;;;;;;;10.27;1.30;;;10.10;99.90;;;;;;4987421;28;20117;-74
2022/02/19 00:17:31;;;;;;;8.63;1.80;;;9.20;99.90;;;;;;4986939;28;20117;-74
2022/02/19 00:20:00;;;;;;;8.23;1.95;;;9.10;99.90;;;;;;4971634;28;22042;-74
2022/02/19 00:22:26;;;;;;;7.05;1.40;;;9.30;99.90;;;;;;4989114;28;20474;-74
2022/02/19 00:24:52;;;;;;;12.15;1.80;;;9.70;99.90;;;;;;4988925;28;20045;-74
2022/02/19 00:27:18;;;;;;;7.85;2.35;;;9.10;99.90;;;;;;4988992;28;20034;-74
2022/02/19 00:29:43;;;;;;;12.88;2.22;;;9.30;99.90;;;;;;4960162;28;20022;-73
2022/02/19 00:32:09;;;;;;;8.40;1.30;;;9.10;99.90;;;;;;4988101;28;20030;-74
2022/02/19 00:34:35;;;;;;;6.95;1.25;;;9.00;99.90;;;;;;4988448;28;20026;-74
2022/02/19 00:37:01;;;;;;;12.45;1.48;;;9.20;99.90;;;;;;4988863;28;20026;-74
2022/02/19 00:39:27;;;;;;;9.80;2.20;;;8.90;99.90;;;;;;4988095;28;20045;-74
2022/02/19 00:41:53;;;;;;;7.05;1.77;;;8.80;99.90;;;;;;4989053;28;20026;-74
2022/02/19 00:44:19;;;;;;;8.77;1.42;;;8.60;99.90;;;;;;4971390;28;20034;-74
2022/02/19 00:46:44;;;;;;;12.52;1.85;;;8.80;99.90;;;;;;4988754;28;20022;-74
2022/02/19 00:49:10;;;;;;;8.75;1.50;;;8.80;99.90;;;;;;4988023;28;20022;-74
2022/02/19 00:51:36;;;;;;;7.72;1.55;;;8.70;99.90;;;;;;4951855;28;20065;-74
2022/02/19 00:54:02;;;;;;;8.35;1.45;;;8.90;99.90;;;;;;4968130;28;20516;-74
2022/02/19 00:56:28;;;;;;;11.93;2.17;;;8.70;99.90;;;;;;4970767;28;20042;-74
2022/02/19 00:58:54;;;;;;;9.57;1.92;;;8.60;99.90;;;;;;4987890;28;20117;-74
2022/02/19 01:01:20;;;;;;;6.97;1.15;;;8.90;99.90;;;;;;4988449;28;20035;-74
2022/02/19 01:03:47;;;;;;;14.27;1.75;;;8.60;99.90;;;;;;4970900;28;20034;-74
2022/02/19 01:06:12;;;;;;;8.13;1.75;;;8.70;99.90;;;;;;4970659;28;20030;-74
2022/02/19 01:08:38;;;;;;;6.95;1.60;;;8.60;99.90;;;;;;4970044;28;20035;-74
2022/02/19 01:11:04;;;;;;;7.60;1.48;;;8.60;99.90;;;;;;4971398;28;20411;-74
2022/02/19 01:13:30;;;;;;;11.25;1.60;;;8.50;99.90;;;;;;4988680;28;20493;-74
2022/02/19 01:15:57;;;;;;;10.27;1.52;;;8.50;99.90;;;;;;4970999;28;20030;-74
2022/02/19 01:18:23;;;;;;;5.38;1.27;;;8.70;99.90;;;;;;4970495;28;20379;-75
2022/02/19 01:20:48;;;;;;;10.82;1.52;;;8.60;99.90;;;;;;4970569;28;20034;-74
2022/02/19 01:23:14;;;;;;;8.85;1.70;;;8.80;99.90;;;;;;4988325;28;20026;-74
2022/02/19 01:25:40;;;;;;;10.18;2.03;;;8.60;99.90;;;;;;4970897;28;20041;-74
2022/02/19 01:28:05;;;;;;;6.80;1.40;;;8.40;99.90;;;;;;4971003;28;20037;-74
2022/02/19 01:30:31;;;;;;;14.35;1.60;;;8.40;99.90;;;;;;4987788;28;20037;-75
2022/02/19 01:32:57;;;;;;;10.00;1.70;;;8.60;99.90;;;;;;4988319;28;20113;-74
2022/02/19 01:35:23;;;;;;;9.75;1.55;;;8.40;99.90;;;;;;4987414;28;20148;-74
2022/02/19 01:37:49;;;;;;;11.15;1.80;;;8.30;99.90;;;;;;4988270;28;20427;-74
2022/02/19 01:40:15;;;;;;;7.70;1.90;;;8.40;99.90;;;;;;4969922;28;20037;-73
2022/02/19 01:42:41;;;;;;;11.13;1.52;;;8.20;99.90;;;;;;4969997;28;20035;-73
2022/02/19 01:45:07;;;;;;;4.75;1.40;;;8.20;99.90;;;;;;4986871;28;20041;-74
2022/02/19 01:47:36;;;;;;;8.57;1.73;;;8.00;99.90;;;;;;4988333;28;20018;-74
2022/02/19 01:50:03;;;;;;;9.57;1.80;;;8.90;99.90;;;;;;4987815;28;20048;-76
2022/02/19 01:52:29;;;;;;;12.05;1.50;;;7.90;99.90;;;;;;4988239;28;20023;-75
2022/02/19 01:54:56;;;;;;;10.45;1.48;;;8.10;99.90;;;;;;4988017;28;20037;-73
2022/02/19 01:57:22;;;;;;;18.77;1.65;;;8.00;99.90;;;;;;4988138;28;20069;-74
2022/02/19 01:59:48;;;;;;;11.57;1.58;;;8.00;99.90;;;;;;4986493;28;20022;-74
2022/02/19 02:02:14;;;;;;;6.68;1.70;;;8.10;99.90;;;;;;4968713;28;20031;-74
2022/02/19 02:04:41;;;;;;;9.75;1.40;;;8.10;99.90;;;;;;4969060;28;20515;-75
2022/02/19 02:07:08;;;;;;;15.02;1.92;;;9.10;99.90;;;;;;4939239;28;20087;-74
2022/02/19 02:09:38;;;;;;;10.70;1.58;;;8.00;99.90;;;;;;4989154;28;20037;-74
2022/02/19 02:12:06;;;;;;;9.45;1.65;;;8.10;99.90;;;;;;4973790;28;20498;-74
2022/02/19 02:14:38;;;;;;;14.68;1.67;;;7.90;99.90;;;;;;4991248;28;20489;-74
2022/02/19 02:17:03;;;;;;;11.02;1.70;;;7.90;99.90;;;;;;4991070;28;20045;-74
2022/02/19 02:19:29;;;;;;;13.25;1.88;;;7.90;99.90;;;;;;4989953;28;20443;-75
2022/02/19 02:21:54;;;;;;;9.20;2.72;;;8.00;99.90;;;;;;4973444;28;20545;-74
2022/02/19 02:24:20;;;;;;;9.63;2.45;;;8.00;99.90;;;;;;4990937;28;20110;-73
2022/02/19 02:26:46;;;;;;;7.65;1.40;;;8.00;99.90;;;;;;4990774;28;20127;-74
2022/02/19 02:29:12;;;;;;;9.02;1.70;;;7.90;99.90;;;;;;4990356;28;20487;-74
2022/02/19 02:31:38;;;;;;;7.07;1.58;;;7.80;99.90;;;;;;4973071;28;20031;-74
2022/02/19 02:34:03;;;;;;;8.15;1.50;;;8.00;99.90;;;;;;4988763;28;20030;-74
2022/02/19 02:36:29;;;;;;;9.07;2.53;;;7.70;99.90;;;;;;4971316;28;20047;-74
2022/02/19 02:38:57;;;;;;;10.65;1.42;;;7.60;99.90;;;;;;4988773;28;20137;-73
2022/02/19 02:41:23;;;;;;;11.07;2.20;;;7.70;99.90;;;;;;4990822;28;20050;-75
2022/02/19 02:43:49;;;;;;;10.00;1.77;;;7.70;99.90;;;;;;4972936;28;20065;-73
2022/02/19 02:46:14;;;;;;;9.35;1.23;;;7.60;99.90;;;;;;4990531;28;20031;-74
2022/02/19 02:48:40;;;;;;;8.98;1.45;;;7.70;99.90;;;;;;4990108;28;20031;-74
2022/02/19 02:51:07;;;;;;;11.85;1.27;;;7.60;99.90;;;;;;4990294;28;20126;-74
2022/02/19 02:53:33;;;;;;;7.25;1.92;;;7.60;99.90;;;;;;4989787;28;20058;-73
2022/02/19 02:55:58;;;;;;;11.93;1.40;;;7.50;99.90;;;;;;4991272;28;20035;-74
2022/02/19 02:58:24;;;;;;;9.88;1.85;;;7.70;99.90;;;;;;4990148;28;20105;-73
2022/02/19 03:00:51;;;;;;;7.32;1.45;;;7.50;99.90;;;;;;4974342;28;20026;-73
2022/02/19 03:03:17;;;;;;;9.75;2.05;;;7.70;99.90;;;;;;4990180;28;20113;-74
2022/02/19 03:05:42;;;;;;;8.45;1.50;;;7.80;99.90;;;;;;4972826;28;20129;-73
2022/02/19 03:08:08;;;;;;;9.25;1.90;;;7.30;99.90;;;;;;4972449;28;20518;-73
2022/02/19 03:10:34;;;;;;;11.77;1.80;;;7.30;99.90;;;;;;4989726;28;20042;-74
2022/02/19 03:13:00;;;;;;;6.53;1.40;;;7.30;99.90;;;;;;4990470;28;20542;-74
2022/02/19 03:15:25;;;;;;;16.65;1.60;;;7.20;99.90;;;;;;4973262;28;20613;-74
2022/02/19 03:17:51;;;;;;;13.63;1.63;;;7.20;99.90;;;;;;4990703;28;20049;-74
2022/02/19 03:20:19;;;;;;;12.05;1.85;;;7.40;99.90;;;;;;4989228;28;20035;-74
2022/02/19 03:22:46;;;;;;;10.10;1.35;;;7.20;99.90;;;;;;4990020;28;20548;-74
2022/02/19 03:25:13;;;;;;;10.48;1.50;;;7.70;99.90;;;;;;4989618;28;20394;-73
2022/02/19 03:27:39;;;;;;;15.40;2.13;;;7.10;99.90;;;;;;4990008;28;20026;-74
2022/02/19 03:30:06;;;;;;;11.05;1.95;;;7.10;99.90;;;;;;4989274;28;20109;-73
2022/02/19 03:32:32;;;;;;;15.07;1.65;;;6.90;99.90;;;;;;4989560;28;20042;-74
2022/02/19 03:34:58;;;;;;;9.88;1.60;;;;;;;;;;4989567;28;20371;-74
2022/02/19 03:37:24;;;;;;;7.68;1.83;;;;;;;;;;4972143;28;20101;-74
2022/02/19 03:39:50;;;;;;;8.57;1.00;;;;;;;;;;4989341;28;20026;-74
2022/02/19 03:42:16;;;;;;;7.53;1.35;;;;;;;;;;4991081;28;20039;-74
2022/02/19 03:44:42;;;;;;;6.55;1.73;;;;;;;;;;4989005;28;20133;-74
2022/02/19 03:47:08;;;;;;;8.98;1.80;;;;;;;;;;4989662;28;20438;-74
2022/02/19 03:49:34;;;;;;;13.25;1.73;;;;;;;;;;4987901;28;20041;-73
2022/02/19 03:52:00;;;;;;;10.57;1.50;;;;;;;;;;4986065;28;20022;-74
2022/02/19 03:54:26;;;;;;;8.70;1.52;;;;;;;;;;4989496;28;20152;-74
2022/02/19 03:56:52;;;;;;;11.23;1.52;;;;;;;;;;4989462;28;20401;-74
2022/02/19 03:59:18;;;;;;;10.52;1.45;;;;;;;;;;4988786;28;20038;-74
2022/02/19 04:01:45;;;;;;;12.68;1.77;;;;;;;;;;4989184;28;20043;-73
2022/02/19 04:04:11;;;;;;;8.30;1.10;;;;;;;;;;4989443;28;20208;-74
2022/02/19 04:06:37;;;;;;;11.48;1.42;;;;;;;;;;4972386;28;20032;-73
2022/02/19 04:09:04;;;;;;;10.15;1.58;;;;;;;;;;4989819;28;20487;-74
2022/02/19 04:11:30;;;;;;;9.57;1.33;;;;;;;;;;4991241;28;20083;-74
2022/02/19 04:13:56;;;;;;;14.27;1.83;;;;;;;;;;4991885;28;20065;-74
2022/02/19 04:16:22;;;;;;;10.73;2.10;;;;;;;;;;4976545;28;20057;-73
2022/02/19 04:18:48;;;;;;;3.70;1.05;;;6.70;99.90;;;;;;4994000;28;20026;-73
2022/02/19 04:21:13;;;;;;;6.13;1.70;;;7.60;99.90;;;;;;4991376;28;20027;-73
2022/02/19 04:23:39;;;;;;;8.70;2.10;;;7.10;99.90;;;;;;4990930;28;20117;-74
2022/02/19 04:26:05;;;;;;;9.85;1.75;;;6.70;99.90;;;;;;4971043;28;20035;-74
2022/02/19 04:28:30;;;;;;;14.57;2.00;;;6.70;99.90;;;;;;4988463;28;20068;-74
2022/02/19 04:30:56;;;;;;;7.63;0.98;;;6.60;99.90;;;;;;4988514;28;20181;-74
2022/02/19 04:33:22;;;;;;;4.60;1.13;;;6.40;99.90;;;;;;4988703;28;20041;-74
2022/02/19 04:35:48;;;;;;;8.73;1.15;;;6.60;99.90;;;;;;4988932;28;20031;-74
2022/02/19 04:38:15;;;;;;;5.93;1.23;;;6.60;99.90;;;;;;4988868;28;20056;-74
2022/02/19 04:40:42;;;;;;;22.95;3.13;;;6.90;99.90;;;;;;4987703;28;20623;-75
2022/02/19 04:43:08;;;;;;;6.68;1.10;;;6.50;99.90;;;;;;4988646;28;20483;-74
2022/02/19 04:45:34;;;;;;;5.25;0.93;;;6.50;99.90;;;;;;4971396;28;20065;-74
2022/02/19 04:48:00;;;;;;;6.63;1.55;;;6.40;99.90;;;;;;4988762;28;20022;-74
2022/02/19 04:50:26;;;;;;;8.98;1.83;;;6.40;99.90;;;;;;4977344;28;20086;-74
2022/02/19 04:52:52;;;;;;;11.23;1.67;;;6.40;99.90;;;;;;4967046;28;20039;-75
2022/02/19 04:55:17;;;;;;;10.85;1.83;;;6.30;99.90;;;;;;4988228;28;20117;-75
2022/02/19 04:57:44;;;;;;;8.50;1.80;;;6.30;99.90;;;;;;4988769;28;20038;-74
2022/02/19 05:00:16;;;;;;;9.68;1.23;;;6.90;99.90;;;;;;4987836;28;20065;-75
2022/02/19 05:02:42;;;;;;;9.95;1.25;;;6.20;99.90;;;;;;4988701;28;20039;-75
2022/02/19 05:05:08;;;;;;;12.88;1.92;;;6.90;99.90;;;;;;4988259;28;20034;-75
2022/02/19 05:07:34;;;;;;;11.95;2.63;;;6.10;99.90;;;;;;4988479;28;20049;-75
2022/02/19 05:10:00;;;;;;;10.55;1.65;;;6.20;99.90;;;;;;4987553;28;20031;-74
2022/02/19 05:12:26;;;;;;;7.55;1.88;;;6.10;99.90;;;;;;4988638;28;20025;-74
2022/02/19 05:14:54;;;;;;;10.95;1.70;;;6.30;99.90;;;;;;4988979;28;20121;-75
2022/02/19 05:17:20;;;;;;;11.05;1.95;;;6.10;99.90;;;;;;4989903;28;20360;-74
2022/02/19 05:19:46;;;;;;;11.27;1.30;;;6.10;99.90;;;;;;4972887;28;20046;-74
2022/02/19 05:22:12;;;;;;;11.30;1.40;;;6.10;99.90;;;;;;4988251;28;20101;-75
2022/02/19 05:24:37;;;;;;;10.48;2.85;;;6.20;99.90;;;;;;4970493;28;20142;-75
2022/02/19 05:27:03;;;;;;;10.23;1.10;;;6.10;99.90;;;;;;4970707;28;20113;-76
2022/02/19 05:29:29;;;;;;;12.43;1.80;;;6.00;99.90;;;;;;4987568;28;20034;-74
2022/02/19 05:31:54;;;;;;;12.68;1.75;;;6.50;99.90;;;;;;4988526;28;20509;-76
2022/02/19 05:34:20;;;;;;;10.23;2.33;;;6.00;99.90;;;;;;4970760;28;20034;-74
2022/02/19 05:36:46;;;;;;;9.05;1.63;;;6.00;99.90;;;;;;4988140;28;20061;-76
2022/02/19 05:39:11;;;;;;;11.75;2.17;;;6.10;99.90;;;;;;4987856;28;20070;-76
2022/02/19 05:41:37;;;;;;;7.90;1.40;;;5.80;99.90;;;;;;4987990;28;20046;-75
2022/02/19 05:44:04;;;;;;;9.98;1.27;;;5.90;99.90;;;;;;4973365;28;20490;-74
2022/02/19 05:46:34;;;;;;;11.50;1.40;;;5.80;99.90;;;;;;4991383;28;20117;-76
2022/02/19 05:49:00;;;;;;;15.45;1.58;;;5.80;99.90;;;;;;4973515;28;20076;-76
2022/02/19 05:51:27;;;;;;;9.20;2.15;;;5.80;99.90;;;;;;4991649;28;20113;-76
2022/02/19 05:53:53;;;;;;;12.38;1.80;;;6.10;99.90;;;;;;4991750;28;20067;-76
2022/02/19 05:56:19;;;;;;;12.63;1.25;;;6.20;99.90;;;;;;4990864;28;20118;-76
2022/02/19 05:58:45;;;;;;;9.35;1.48;;;5.80;99.90;;;;;;4973835;28;20440;-75
2022/02/19 06:01:11;;;;;;;11.40;1.85;;;5.80;99.90;;;;;;4991314;28;20038;-75
2022/02/19 06:03:39;;;;;;;8.27;1.60;;;5.70;99.90;;;;;;4991326;28;20030;-75
2022/02/19 06:06:05;;;;;;;10.68;1.70;;;6.10;99.90;;;;;;4991206;28;20033;-75
2022/02/19 06:08:30;;;;;;;16.48;1.45;;;5.80;99.90;;;;;;4990765;28;20031;-75
2022/02/19 06:10:56;;;;;;;10.38;1.48;;;5.60;99.90;;;;;;4991147;28;20038;-72
2022/02/19 06:13:22;;;;;;;8.55;1.30;;;5.60;99.90;;;;;;4991604;28;20030;-73
2022/02/19 06:15:48;;;;;;;11.00;2.83;;;6.40;99.90;;;;;;4991338;28;20087;-76
2022/02/19 06:18:15;;;;;;;9.02;1.95;;;5.60;99.90;;;;;;4990831;28;20030;-76
2022/02/19 06:20:41;;;;;;;8.88;1.30;;;5.80;99.90;;;;;;4990427;28;20034;-76
2022/02/19 06:23:07;;;;;;;9.98;1.83;;;5.60;99.90;;;;;;4991121;28;20038;-76
2022/02/19 06:25:33;;;;;;;13.82;1.20;;;5.70;99.90;;;;;;4990881;28;20543;-75
2022/02/19 06:27:59;;;;;;;9.82;1.58;;;5.50;99.90;;;;;;4991021;28;20088;-75
2022/02/19 06:30:25;;;;;;;10.88;1.52;;;5.70;99.90;;;;;;4989963;28;20482;-75
2022/02/19 06:32:50;;;;;;;9.65;1.63;;;5.50;99.90;;;;;;4973337;28;20035;-76
2022/02/19 06:35:16;;;;;;;7.10;2.08;;;5.50;99.90;;;;;;4990901;28;20030;-76
2022/02/19 06:37:44;;;;;;;13.05;2.33;;;5.30;99.90;;;;;;4973820;28;20498;-75
2022/02/19 06:40:12;;;;;;;7.78;1.42;;;5.30;99.90;;;;;;4989840;28;20399;-75
2022/02/19 06:42:38;;;;;;;7.43;1.35;;;5.40;99.90;;;;;;4973443;28;20026;-75
2022/02/19 06:45:06;;;;;;;6.30;1.20;;;5.30;99.90;;;;;;4990419;28;20031;-75
2022/02/19 06:47:32;;;;;;;10.18;1.92;;;5.30;99.90;;;;;;4990537;28;20026;-75
2022/02/19 06:50:00;;;;;;;8.25;2.00;;;5.40;99.90;;;;;;4972666;28;20158;-75
2022/02/19 06:52:26;;;;;;;4.80;1.45;;;6.30;99.90;;;;;;4973509;28;20022;-75
2022/02/19 06:54:52;;;;;;;16.80;2.30;;;5.30;99.90;;;;;;4972649;28;20450;-75
2022/02/19 06:57:17;;;;;;;12.27;1.60;;;5.30;99.90;;;;;;4972677;28;20043;-75
2022/02/19 06:59:43;;;;;;;6.47;1.05;;;5.40;99.90;;;;;;4989522;28;20030;-75
2022/02/19 07:02:09;;;;;;;9.93;1.20;;;5.40;99.90;;;;;;4990409;28;20091;-76
2022/02/19 07:04:35;;;;;;;9.52;1.83;;;5.60;99.90;;;;;;4990057;28;20042;-76
2022/02/19 07:07:00;;;;;;;10.30;1.38;;;5.70;99.90;;;;;;4972707;28;20026;-76
2022/02/19 07:09:26;;;;;;;12.85;1.98;;;5.40;99.90;;;;;;4953133;28;20535;-77
2022/02/19 07:11:54;;;;;;;9.38;1.20;;;5.40;99.90;;;;;;4975162;28;20056;-77
2022/02/19 07:14:21;;;;;;;9.18;1.40;;;5.40;99.90;;;;;;4990048;28;20038;-76
2022/02/19 07:16:47;;;;;;;9.20;1.90;;;5.40;99.90;;;;;;4990021;28;20026;-76
2022/02/19 07:19:13;;;;;;;5.80;1.45;;;5.50;99.90;;;;;;4989535;28;20100;-76
2022/02/19 07:21:39;;;;;;;11.77;1.63;;;5.40;99.90;;;;;;4989827;28;20038;-76
2022/02/19 07:24:05;;;;;;;8.32;1.50;;;5.40;99.90;;;;;;4989950;28;20490;-76
2022/02/19 07:26:32;;;;;;;11.35;1.73;;;5.50;99.90;;;;;;4989334;28;20034;-76
2022/02/19 07:28:57;;;;;;;5.32;1.20;;;5.50;99.90;;;;;;4988916;28;20053;-76
2022/02/19 07:31:23;;;;;;;15.63;1.67;;;5.80;99.90;;;;;;4956415;28;20026;-75
2022/02/19 07:33:49;;;;;;;10.35;1.92;;;6.00;99.90;;;;;;4989924;28;20375;-76
2022/02/19 07:36:14;;;;;;;7.00;2.15;;;5.60;99.90;;;;;;4989865;28;20351;-76
2022/02/19 07:38:40;;;;;;;8.85;1.58;;;5.70;99.90;;;;;;4989421;28;20034;-75
2022/02/19 07:41:06;;;;;;;7.70;1.40;;;5.90;99.90;;;;;;4988174;28;20018;-75
2022/02/19 07:43:31;;;;;;;8.10;1.05;;;6.00;99.90;;;;;;4989054;28;20053;-75
2022/02/19 07:46:01;;;;;;;11.45;1.42;;;5.80;99.90;;;;;;4989437;28;20133;-75
2022/02/19 07:48:27;;;;;;;9.30;2.60;;;5.90;99.90;;;;;;4971908;28;20116;-76
2022/02/19 07:59:10;;;;;;;9.38;2.22;;;6.60;99.90;;;;;;4989327;28;20563;-75
2022/02/19 08:01:35;;;;;;;9.75;1.83;;;6.10;99.90;;;;;;4989434;28;20039;-75
2022/02/19 08:04:01;;;;;;;8.63;1.48;;;6.00;99.90;;;;;;4989550;28;20041;-75
2022/02/19 08:06:27;;;;;;;9.07;1.58;;;6.00;99.90;;;;;;4988353;28;20391;-75
2022/02/19 08:08:52;;;;;;;6.90;1.50;;;6.10;99.90;;;;;;4988436;28;20023;-75
2022/02/19 08:11:18;;;;;;;8.77;1.20;;;6.10;99.90;;;;;;4955260;28;20049;-75
2022/02/19 08:13:44;;;;;;;11.38;1.80;;;6.20;99.90;;;;;;4989062;28;20065;-75
2022/02/19 08:16:10;;;;;;;12.63;1.58;;;7.00;99.90;;;;;;4989144;28;20031;-75
2022/02/19 08:18:37;;;;;;;8.77;2.00;;;6.30;99.90;;;;;;4971172;28;20045;-75
2022/02/19 08:21:03;;;;;;;10.77;1.63;;;6.40;99.90;;;;;;4971607;28;20034;-76
2022/02/19 08:23:29;;;;;;;12.63;2.03;;;6.30;99.90;;;;;;4988762;28;20026;-76
2022/02/19 08:25:55;;;;;;;9.45;2.03;;;6.40;99.90;;;;;;4971507;28;20066;-76
2022/02/19 08:28:21;;;;;;;11.38;1.52;;;6.50;99.90;;;;;;4989201;28;20048;-76
2022/02/19 08:30:47;;;;;;;6.90;1.40;;;6.60;99.90;;;;;;4988946;28;20050;-76
2022/02/19 08:33:13;;;;;;;7.97;1.50;;;6.40;99.90;;;;;;4989171;28;20034;-76
2022/02/19 08:35:40;;;;;;;7.90;1.35;;;6.50;99.90;;;;;;4989186;28;20026;-76
2022/02/19 08:38:07;;;;;;;10.70;1.48;;;6.30;99.90;;;;;;4988733;28;20410;-76
2022/02/19 08:40:33;;;;;;;14.15;1.70;;;6.70;99.90;;;;;;4987821;28;20030;-76
2022/02/19 08:43:00;;;;;;;9.02;2.70;;;6.80;99.90;;;;;;4988518;28;20040;-76
2022/02/19 08:45:25;;;;;;;12.10;1.83;;;6.80;99.90;;;;;;4988950;28;20372;-75
2022/02/19 08:47:54;;;;;;;12.52;1.98;;;6.80;99.90;;;;;;4988874;28;20027;-75
2022/02/19 08:50:20;;;;;;;9.13;1.40;;;6.90;99.90;;;;;;4987914;28;20022;-75
2022/02/19 08:52:48;;;;;;;10.52;1.92;;;6.70;99.90;;;;;;4987809;28;20035;-75
2022/02/19 08:55:15;;;;;;;4.43;1.45;;;6.70;99.90;;;;;;4988410;28;20114;-75
2022/02/19 08:57:41;;;;;;;9.68;2.17;;;6.90;99.90;;;;;;4988600;28;20091;-75
2022/02/19 09:00:09;;;;;;;13.25;1.50;;;8.30;99.90;;;;;;4988141;28;20411;-75
2022/02/19 09:02:35;;;;;;;14.00;2.22;;;7.70;99.90;;;;;;4988460;28;20394;-76
2022/02/19 09:05:01;;;;;;;12.13;2.05;;;7.40;99.90;;;;;;4988146;28;20042;-75
2022/02/19 09:07:28;;;;;;;13.90;1.70;;;7.60;99.90;;;;;;4988334;28;20051;-75
2022/02/19 09:09:53;;;;;;;16.23;1.75;;;7.50;99.90;;;;;;4987712;28;20109;-75
2022/02/19 09:12:20;;;;;;;13.40;1.80;;;7.20;99.90;;;;;;4988408;28;20111;-75
2022/02/19 09:14:46;;;;;;;7.15;1.20;;;7.60;99.90;;;;;;4988821;28;20493;-74
2022/02/19 09:17:12;;;;;;;9.07;1.30;;;7.70;99.90;;;;;;4988534;28;20062;-74
2022/02/19 09:19:37;;;;;;;8.30;1.42;;;8.50;99.90;;;;;;4991286;28;20109;-75
2022/02/19 09:22:05;;;;;;;10.60;1.08;;;8.30;99.90;;;;;;4992367;28;20200;-74
2022/02/19 09:24:30;;;;;;;5.78;1.27;;;8.20;99.90;;;;;;4992093;28;20030;-75
2022/02/19 09:26:56;;;;;;;7.75;1.67;;;8.10;99.90;;;;;;4991875;28;20046;-75
2022/02/19 09:29:23;;;;;;;6.30;1.60;;;9.10;99.90;;;;;;4992137;28;20390;-75
2022/02/19 09:31:49;;;;;;;6.15;1.33;;;8.80;99.90;;;;;;4992811;28;20029;-75
2022/02/19 09:34:15;;;;;;;12.40;1.65;;;8.70;99.90;;;;;;4992486;28;20038;-75
2022/02/19 09:36:40;;;;;;;12.27;1.50;;;8.70;99.90;;;;;;4992908;28;20196;-75
2022/02/19 09:39:09;;;;;;;13.05;2.00;;;8.80;99.90;;;;;;4973690;28;20054;-75
2022/02/19 09:41:34;;;;;;;10.68;1.58;;;9.70;99.90;;;;;;4991257;28;20037;-75
2022/02/19 09:44:04;;;;;;;11.52;3.03;;;10.40;99.90;;;;;;4991588;28;20039;-75
2022/02/19 09:46:32;;;;;;;17.02;1.85;;;10.10;99.90;;;;;;4991694;28;20037;-75
2022/02/19 09:48:58;;;;;;;7.35;1.77;;;10.20;99.90;;;;;;4990982;28;20432;-75
2022/02/19 09:51:24;;;;;;;8.38;1.55;;;10.30;99.90;;;;;;4993448;28;20031;-75
2022/02/19 09:53:50;;;;;;;10.88;1.80;;;11.60;99.90;;;;;;4994209;28;20046;-75
2022/02/19 09:56:15;;;;;;;7.82;1.40;;;12.10;99.00;;;;;;4993186;28;20096;-75
2022/02/19 09:58:45;;;;;;;8.55;1.80;;;12.50;98.50;;;;;;4992885;28;20041;-75
2022/02/19 10:01:20;;;;;;;6.68;1.05;;;12.50;97.20;;;;;;4991284;28;20119;-76
2022/02/19 10:03:53;;;;;;;9.90;1.40;;;12.80;97.10;;;;;;4991166;28;20115;-75
2022/02/19 10:06:19;;;;;;;5.32;1.20;;;11.40;98.30;;;;;;4991287;28;20030;-75
2022/02/19 10:08:45;;;;;;;8.32;1.83;;;11.40;98.50;;;;;;4990339;28;20023;-75
2022/02/19 10:11:14;;;;;;;5.97;1.10;;;11.80;97.40;;;;;;4990517;28;20034;-75
2022/02/19 10:13:41;;;;;;;7.55;1.58;;;12.40;96.40;;;;;;4991075;28;20026;-75
2022/02/19 10:16:09;;;;;;;5.03;1.27;;;12.90;95.70;;;;;;4990906;28;20030;-75
2022/02/19 10:18:42;;;;;;;8.10;1.15;;;12.60;95.90;;;;;;4990583;28;20030;-75
2022/02/19 10:21:22;;;;;;;9.05;1.23;;;12.20;95.50;;;;;;4991292;28;20030;-75
2022/02/19 10:23:50;;;;;;;9.15;1.83;;;11.40;95.70;;;;;;4973804;28;20088;-75
2022/02/19 10:26:25;;;;;;;6.50;1.40;;;11.40;96.70;;;;;;4990815;28;20076;-75
2022/02/19 10:29:04;;;;;;;5.03;1.13;;;12.00;96.00;;;;;;4989971;28;20659;-75
2022/02/19 10:31:31;;;;;;;4.97;0.90;;;13.50;94.30;;;;;;4990547;28;20023;-75
2022/02/19 10:34:08;;;;;;;9.80;1.52;;;13.10;92.60;;;;;;4990075;28;20117;-76
2022/02/19 10:36:51;;;;;;;9.75;1.58;;;13.00;93.70;;;;;;4991725;28;20159;-75
2022/02/19 10:39:27;;;;;;;5.72;1.05;;;11.00;96.00;;;;;;4992444;28;20034;-75
2022/02/19 10:41:56;;;;;;;6.80;1.10;;;10.40;96.80;;;;;;4992267;28;20080;-75
2022/02/19 10:44:26;;;;;;;5.38;1.63;;;11.30;96.30;;;;;;4994091;28;20030;-75
2022/02/19 10:46:54;;;;;;;8.68;1.17;;;12.70;94.60;;;;;;4993286;28;20105;-76
2022/02/19 10:49:19;;;;;;;6.80;1.52;;;13.00;92.20;;;;;;4975417;28;20360;-76
2022/02/19 10:51:45;;;;;;;4.60;1.50;;;;;;;;;;4994980;28;20106;-76
2022/02/19 10:54:12;;;;;;;8.32;1.42;;;;;;;;;;4974865;28;20037;-75
2022/02/19 10:56:38;;;;;;;6.05;1.73;;;;;;;;;;4992347;28;20038;-76
2022/02/19 10:59:04;;;;;;;5.60;1.13;;;;;;;;;;4992675;28;20113;-76
2022/02/19 11:01:44;;;;;;;8.27;1.63;;;;;;;;;;4993516;28;20077;-76
2022/02/19 11:04:11;;;;;;;7.28;1.60;;;;;;;;;;4993581;28;20034;-76
2022/02/19 11:06:37;;;;;;;6.22;1.27;;;13.70;76.70;;;;;;4994078;28;20033;-76
2022/02/19 11:09:05;;;;;;;6.68;1.50;;;13.80;78.30;;;;;;4991289;28;20023;-75
2022/02/19 11:11:37;;;;;;;2.97;0.93;;;13.90;78.00;;;;;;4993414;28;20090;-75
2022/02/19 11:14:07;;;;;;;5.95;1.13;;;13.90;76.40;;;;;;4975774;28;20030;-75
2022/02/19 11:16:34;;;;;;;7.95;1.52;;;12.40;78.90;;;;;;4976506;28;20147;-75
2022/02/19 11:19:00;;;;;;;7.55;1.30;;;11.70;83.10;;;;;;4993486;28;20117;-75
2022/02/19 11:21:30;;;;;;;7.30;1.17;;;12.00;84.70;;;;;;4993484;28;20058;-76
2022/02/19 11:24:00;;;;;;;6.75;1.30;;;12.60;81.20;;;;;;4993253;28;20034;-76
2022/02/19 11:26:25;;;;;;;5.70;1.15;;;13.90;79.30;;;;;;4958723;28;20019;-76
2022/02/19 11:28:56;;;;;;;6.60;1.33;;;15.30;77.70;;;;;;4992093;28;20032;-76
2022/02/19 11:31:26;;;;;;;5.18;1.13;;;14.10;74.30;;;;;;4992903;28;20034;-75
2022/02/19 11:33:55;;;;;;;5.40;1.17;;;13.20;75.80;;;;;;4993026;28;20035;-76
2022/02/19 11:36:25;;;;;;;6.53;1.50;;;12.70;76.80;;;;;;4993343;28;20030;-75
2022/02/19 11:38:55;;;;;;;12.32;1.55;;;12.90;77.90;;;;;;4993246;28;20030;-77
2022/02/19 11:41:39;;;;;;;4.45;0.95;;;12.90;73.70;;;;;;4971838;28;20068;-76
2022/02/19 11:44:24;;;;;;;7.30;1.02;;;12.70;73.40;;;;;;4989059;28;20022;-76
2022/02/19 11:46:52;;;;;;;3.25;1.00;;;12.80;76.70;;;;;;4995074;28;20027;-76
2022/02/19 11:49:23;;;;;;;5.93;1.00;;;14.00;75.90;;;;;;4977743;28;20081;-76
2022/02/19 11:52:04;;;;;;;3.70;0.93;;;13.90;74.70;;;;;;4990309;28;20049;-76
2022/02/19 11:54:30;;;;;;;2.92;0.90;;;12.90;74.40;;;;;;4990469;28;20026;-76
2022/02/19 11:56:56;;;;;;;4.80;1.13;;;12.60;75.10;;;;;;4974336;28;20117;-76
2022/02/19 11:59:39;;;;;;;5.53;1.15;;;12.10;75.40;;;;;;4974587;28;20081;-76
2022/02/19 12:02:23;;;;;;;8.57;1.10;;;12.30;77.80;;;;;;4989681;28;20522;-76
2022/02/19 12:05:22;;;;;;;5.97;1.02;;;12.30;77.30;;;;;;4989526;28;20034;-75
2022/02/19 12:08:03;;;;;;;6.32;1.05;;;12.50;76.40;;;;;;4989659;28;20554;-75
2022/02/19 12:10:30;;;;;;;4.35;0.80;;;12.80;75.50;;;;;;4988497;28;20038;-76
2022/02/19 12:13:13;;;;;;;6.35;0.90;;;13.10;75.90;;;;;;4976357;28;20490;-75
2022/02/19 12:15:41;;;;;;;6.07;0.70;;;13.20;71.90;;;;;;4989320;28;20095;-75
2022/02/19 12:18:11;;;;;;;5.85;1.00;;;12.20;74.90;;;;;;4971787;28;20037;-76
2022/02/19 12:20:38;;;;;;;5.80;1.10;;;12.50;74.10;;;;;;4987946;28;20623;-75
2022/02/19 12:23:06;;;;;;;5.95;1.05;;;12.40;75.30;;;;;;4989242;28;20447;-75
2022/02/19 12:26:07;;;;;;;3.05;1.00;;;12.10;77.10;;;;;;4988882;28;20022;-75
2022/02/19 12:28:33;;;;;;;7.20;1.10;;;11.80;76.10;;;;;;4984058;28;20026;-75
2022/02/19 12:31:15;;;;;;;5.75;1.40;;;12.20;76.30;;;;;;4988849;28;20109;-76
2022/02/19 12:33:44;;;;;;;9.35;1.73;;;12.30;74.90;;;;;;4989054;28;20030;-75
2022/02/19 12:36:11;;;;;;;4.20;0.90;;;12.90;75.80;;;;;;4988872;28;20038;-76
2022/02/19 12:38:37;;;;;;;6.15;1.00;;;13.20;72.90;;;;;;4987705;28;20102;-75
2022/02/19 12:41:04;;;;;;;3.75;1.10;;;14.00;73.40;;;;;;4988867;28;20030;-76
2022/02/19 12:43:30;;;;;;;6.53;1.23;;;13.70;74.50;;;;;;4988820;28;20030;-75
2022/02/19 12:45:56;;;;;;;4.88;1.17;;;14.00;74.80;;;;;;4955549;28;20092;-76
2022/02/19 12:48:23;;;;;;;9.18;1.33;;;13.20;72.70;;;;;;4988849;28;20022;-75
2022/02/19 12:50:55;;;;;;;7.05;1.30;;;13.60;73.10;;;;;;4988401;28;20022;-75
2022/02/19 12:53:23;;;;;;;5.30;1.55;;;13.00;74.80;;;;;;4987987;28;20479;-75
2022/02/19 12:55:59;;;;;;;6.10;1.27;;;12.40;74.00;;;;;;4988997;28;20041;-75
2022/02/19 12:58:25;;;;;;;4.85;1.15;;;12.00;72.40;;;;;;4988459;28;20458;-75
2022/02/19 13:00:53;;;;;;;6.43;0.85;;;13.00;74.50;;;;;;4988658;28;20038;-75
2022/02/19 13:03:18;;;;;;;4.47;1.00;;;13.40;73.30;;;;;;4988624;28;20034;-75
2022/02/19 13:06:00;;;;;;;5.72;1.10;;;13.40;74.50;;;;;;4988707;28;20031;-75